sensor_id;sensor_type;location;lat;lon;timestamp;P1;durP1;ratioP1;P2;durP2;ratioP2
18647;SDS011;9453;50.294;18.644;2022-11-13T05:02:50;66.97;;;26.87;;
18647;SDS011;9453;50.294;18.644;2022-11-13T05:05:17;60.37;;;25.27;;
18647;SDS011;9453;50.294;18.644;2022-11-13T05:07:44;53.60;;;23.33;;
18647;SDS011;9453;50.294;18.644;2022-11-13T05:10:16;49.43;;;21.07;;
18647;SDS011;9453;50.294;18.644;2022-11-13T05:12:43;45.40;;;19.80;;
18647;SDS011;9453;50.294;18.644;2022-11-13T05:15:10;50.17;;;19.80;;
18647;SDS011;9453;50.294;18.644;2022-11-13T05:17:37;49.10;;;20.60;;
18647;SDS011;9453;50.294;18.644;2022-11-13T05:20:06;50.87;;;21.17;;
18647;SDS011;9453;50.294;18.644;2022-11-13T05:22:34;49.93;;;21.40;;
18647;SDS011;9453;50.294;18.644;2022-11-13T05:25:00;51.47;;;20.67;;
18647;SDS011;9453;50.294;18.644;2022-11-13T05:27:27;65.37;;;24.00;;
18647;SDS011;9453;50.294;18.644;2022-11-13T05:29:55;60.77;;;22.37;;
18647;SDS011;9453;50.294;18.644;2022-11-13T05:32:22;64.47;;;23.73;;
18647;SDS011;9453;50.294;18.644;2022-11-13T05:34:49;63.30;;;24.93;;
18647;SDS011;9453;50.294;18.644;2022-11-13T05:37:17;69.50;;;25.23;;
18647;SDS011;9453;50.294;18.644;2022-11-13T05:39:44;85.33;;;27.57;;
18647;SDS011;9453;50.294;18.644;2022-11-13T05:42:11;82.40;;;29.00;;
18647;SDS011;9453;50.294;18.644;2022-11-13T05:44:38;73.43;;;26.37;;
18647;SDS011;9453;50.294;18.644;2022-11-13T05:47:05;74.87;;;25.13;;
18647;SDS011;9453;50.294;18.644;2022-11-13T05:49:32;65.10;;;23.17;;
18647;SDS011;9453;50.294;18.644;2022-11-13T05:51:59;69.57;;;23.90;;
18647;SDS011;9453;50.294;18.644;2022-11-13T05:54:27;65.47;;;22.03;;
18647;SDS011;9453;50.294;18.644;2022-11-13T05:56:54;60.13;;;21.83;;
18647;SDS011;9453;50.294;18.644;2022-11-13T05:59:21;70.60;;;24.10;;
18647;SDS011;9453;50.294;18.644;2022-11-13T06:01:48;61.37;;;22.80;;
18647;SDS011;9453;50.294;18.644;2022-11-13T06:04:15;75.40;;;23.43;;
18647;SDS011;9453;50.294;18.644;2022-11-13T06:06:42;74.60;;;25.33;;
18647;SDS011;9453;50.294;18.644;2022-11-13T06:09:12;71.97;;;25.03;;
18647;SDS011;9453;50.294;18.644;2022-11-13T06:11:42;68.77;;;23.33;;
18647;SDS011;9453;50.294;18.644;2022-11-13T06:14:09;65.53;;;23.13;;
18647;SDS011;9453;50.294;18.644;2022-11-13T06:16:37;70.33;;;23.57;;
18647;SDS011;9453;50.294;18.644;2022-11-13T06:19:06;81.63;;;25.60;;
18647;SDS011;9453;50.294;18.644;2022-11-13T06:21:34;75.20;;;24.37;;
18647;SDS011;9453;50.294;18.644;2022-11-13T06:24:04;76.17;;;24.60;;
18647;SDS011;9453;50.294;18.644;2022-11-13T06:26:33;75.20;;;24.80;;
18647;SDS011;9453;50.294;18.644;2022-11-13T06:29:02;72.60;;;23.60;;
18647;SDS011;9453;50.294;18.644;2022-11-13T06:31:32;64.67;;;20.77;;
18647;SDS011;9453;50.294;18.644;2022-11-13T06:34:00;88.57;;;24.57;;
18647;SDS011;9453;50.294;18.644;2022-11-13T06:36:28;94.33;;;27.40;;
18647;SDS011;9453;50.294;18.644;2022-11-13T06:38:56;98.10;;;27.93;;
18647;SDS011;9453;50.294;18.644;2022-11-13T06:41:24;105.63;;;28.87;;
18647;SDS011;9453;50.294;18.644;2022-11-13T06:43:53;88.67;;;27.10;;
18647;SDS011;9453;50.294;18.644;2022-11-13T06:46:22;128.37;;;33.87;;
18647;SDS011;9453;50.294;18.644;2022-11-13T06:49:26;110.93;;;33.03;;
18647;SDS011;9453;50.294;18.644;2022-11-13T06:51:52;106.00;;;32.07;;
18647;SDS011;9453;50.294;18.644;2022-11-13T06:54:19;105.20;;;34.13;;
18647;SDS011;9453;50.294;18.644;2022-11-13T06:56:46;119.10;;;33.57;;
18647;SDS011;9453;50.294;18.644;2022-11-13T06:59:13;109.30;;;33.03;;
18647;SDS011;9453;50.294;18.644;2022-11-13T07:01:41;112.00;;;31.00;;
18647;SDS011;9453;50.294;18.644;2022-11-13T07:04:08;105.87;;;31.00;;
18647;SDS011;9453;50.294;18.644;2022-11-13T07:06:38;117.93;;;33.20;;
18647;SDS011;9453;50.294;18.644;2022-11-13T07:09:05;154.97;;;37.03;;
18647;SDS011;9453;50.294;18.644;2022-11-13T07:11:32;140.07;;;34.63;;
18647;SDS011;9453;50.294;18.644;2022-11-13T07:13:59;114.27;;;34.07;;
18647;SDS011;9453;50.294;18.644;2022-11-13T07:18:56;124.50;;;33.17;;
18647;SDS011;9453;50.294;18.644;2022-11-13T07:21:22;116.67;;;35.13;;
18647;SDS011;9453;50.294;18.644;2022-11-13T07:23:49;110.30;;;32.47;;
18647;SDS011;9453;50.294;18.644;2022-11-13T07:26:16;88.17;;;26.70;;
18647;SDS011;9453;50.294;18.644;2022-11-13T07:28:44;72.97;;;23.93;;
18647;SDS011;9453;50.294;18.644;2022-11-13T07:31:12;71.43;;;24.20;;
18647;SDS011;9453;50.294;18.644;2022-11-13T07:33:39;73.63;;;23.50;;
18647;SDS011;9453;50.294;18.644;2022-11-13T07:36:08;73.60;;;23.43;;
18647;SDS011;9453;50.294;18.644;2022-11-13T07:38:35;79.67;;;25.10;;
18647;SDS011;9453;50.294;18.644;2022-11-13T07:41:02;62.97;;;22.93;;
18647;SDS011;9453;50.294;18.644;2022-11-13T07:43:30;65.57;;;23.87;;
18647;SDS011;9453;50.294;18.644;2022-11-13T07:45:56;75.40;;;23.93;;
18647;SDS011;9453;50.294;18.644;2022-11-13T07:48:24;90.37;;;27.60;;
18647;SDS011;9453;50.294;18.644;2022-11-13T07:50:52;98.93;;;31.03;;
18647;SDS011;9453;50.294;18.644;2022-11-13T07:53:20;92.87;;;29.50;;
18647;SDS011;9453;50.294;18.644;2022-11-13T07:55:48;95.33;;;31.40;;
18647;SDS011;9453;50.294;18.644;2022-11-13T07:58:15;74.43;;;25.70;;
18647;SDS011;9453;50.294;18.644;2022-11-13T08:00:42;66.33;;;23.77;;
18647;SDS011;9453;50.294;18.644;2022-11-13T08:03:11;63.80;;;21.87;;
18647;SDS011;9453;50.294;18.644;2022-11-13T08:05:39;76.30;;;24.80;;
18647;SDS011;9453;50.294;18.644;2022-11-13T08:08:07;74.77;;;24.67;;
18647;SDS011;9453;50.294;18.644;2022-11-13T08:10:39;65.80;;;22.63;;
18647;SDS011;9453;50.294;18.644;2022-11-13T08:13:06;60.87;;;23.67;;
18647;SDS011;9453;50.294;18.644;2022-11-13T08:15:34;58.23;;;23.27;;
18647;SDS011;9453;50.294;18.644;2022-11-13T08:18:02;62.20;;;22.07;;
18647;SDS011;9453;50.294;18.644;2022-11-13T08:20:30;54.60;;;22.50;;
18647;SDS011;9453;50.294;18.644;2022-11-13T08:22:57;65.90;;;24.03;;
18647;SDS011;9453;50.294;18.644;2022-11-13T08:25:25;65.83;;;24.70;;
18647;SDS011;9453;50.294;18.644;2022-11-13T08:27:54;78.13;;;27.93;;
18647;SDS011;9453;50.294;18.644;2022-11-13T08:30:22;73.63;;;25.80;;
18647;SDS011;9453;50.294;18.644;2022-11-13T08:32:50;63.40;;;24.40;;
18647;SDS011;9453;50.294;18.644;2022-11-13T08:35:17;68.43;;;25.23;;
18647;SDS011;9453;50.294;18.644;2022-11-13T08:37:44;78.17;;;28.03;;
18647;SDS011;9453;50.294;18.644;2022-11-13T08:40:11;67.00;;;26.40;;
18647;SDS011;9453;50.294;18.644;2022-11-13T08:42:38;79.90;;;28.37;;
18647;SDS011;9453;50.294;18.644;2022-11-13T08:45:07;68.97;;;26.57;;
18647;SDS011;9453;50.294;18.644;2022-11-13T08:47:35;59.77;;;24.10;;
18647;SDS011;9453;50.294;18.644;2022-11-13T08:50:02;75.13;;;28.50;;
18647;SDS011;9453;50.294;18.644;2022-11-13T08:52:29;62.60;;;26.20;;
18647;SDS011;9453;50.294;18.644;2022-11-13T08:54:56;66.30;;;25.77;;
18647;SDS011;9453;50.294;18.644;2022-11-13T08:57:23;48.87;;;21.13;;
18647;SDS011;9453;50.294;18.644;2022-11-13T08:59:50;49.87;;;20.30;;
18647;SDS011;9453;50.294;18.644;2022-11-13T09:02:18;48.83;;;20.40;;
18647;SDS011;9453;50.294;18.644;2022-11-13T09:04:45;53.80;;;22.17;;
18647;SDS011;9453;50.294;18.644;2022-11-13T09:07:12;53.57;;;21.73;;
18647;SDS011;9453;50.294;18.644;2022-11-13T09:09:39;64.17;;;23.23;;
18647;SDS011;9453;50.294;18.644;2022-11-13T09:12:06;50.77;;;21.40;;
18647;SDS011;9453;50.294;18.644;2022-11-13T09:14:34;54.07;;;21.37;;
18647;SDS011;9453;50.294;18.644;2022-11-13T09:17:01;56.53;;;22.80;;
18647;SDS011;9453;50.294;18.644;2022-11-13T09:19:29;62.20;;;24.90;;
18647;SDS011;9453;50.294;18.644;2022-11-13T09:21:56;49.73;;;21.93;;
18647;SDS011;9453;50.294;18.644;2022-11-13T09:24:24;53.63;;;23.07;;
18647;SDS011;9453;50.294;18.644;2022-11-13T09:26:51;54.43;;;22.07;;
18647;SDS011;9453;50.294;18.644;2022-11-13T09:29:18;44.10;;;20.10;;
18647;SDS011;9453;50.294;18.644;2022-11-13T09:31:45;52.90;;;23.03;;
18647;SDS011;9453;50.294;18.644;2022-11-13T09:34:12;56.40;;;23.43;;
18647;SDS011;9453;50.294;18.644;2022-11-13T09:36:40;59.27;;;25.03;;
18647;SDS011;9453;50.294;18.644;2022-11-13T09:39:07;59.63;;;24.27;;
18647;SDS011;9453;50.294;18.644;2022-11-13T09:41:36;60.30;;;24.07;;
18647;SDS011;9453;50.294;18.644;2022-11-13T09:44:05;58.50;;;24.00;;
18647;SDS011;9453;50.294;18.644;2022-11-13T09:46:40;60.40;;;25.23;;
18647;SDS011;9453;50.294;18.644;2022-11-13T09:49:13;59.47;;;24.57;;
18647;SDS011;9453;50.294;18.644;2022-11-13T09:51:43;59.13;;;24.53;;
18647;SDS011;9453;50.294;18.644;2022-11-13T09:54:15;59.30;;;26.27;;
18647;SDS011;9453;50.294;18.644;2022-11-13T09:56:44;58.17;;;24.60;;
18647;SDS011;9453;50.294;18.644;2022-11-13T09:59:18;59.60;;;24.30;;
18647;SDS011;9453;50.294;18.644;2022-11-13T10:01:54;48.77;;;21.10;;
18647;SDS011;9453;50.294;18.644;2022-11-13T10:04:29;53.97;;;23.10;;
18647;SDS011;9453;50.294;18.644;2022-11-13T10:07:23;53.30;;;23.83;;
18647;SDS011;9453;50.294;18.644;2022-11-13T10:10:00;57.67;;;23.60;;
18647;SDS011;9453;50.294;18.644;2022-11-13T10:12:45;52.97;;;21.60;;
18647;SDS011;9453;50.294;18.644;2022-11-13T10:15:17;53.30;;;22.33;;
18647;SDS011;9453;50.294;18.644;2022-11-13T10:17:45;56.10;;;22.70;;
18647;SDS011;9453;50.294;18.644;2022-11-13T10:20:18;56.97;;;23.17;;
18647;SDS011;9453;50.294;18.644;2022-11-13T10:22:50;52.83;;;23.57;;
18647;SDS011;9453;50.294;18.644;2022-11-13T10:25:21;47.77;;;20.53;;
18647;SDS011;9453;50.294;18.644;2022-11-13T10:27:52;50.73;;;22.23;;
18647;SDS011;9453;50.294;18.644;2022-11-13T10:30:21;54.07;;;23.60;;
18647;SDS011;9453;50.294;18.644;2022-11-13T10:32:48;51.43;;;23.03;;
18647;SDS011;9453;50.294;18.644;2022-11-13T10:35:22;57.93;;;24.37;;
18647;SDS011;9453;50.294;18.644;2022-11-13T10:38:04;50.53;;;22.73;;
18647;SDS011;9453;50.294;18.644;2022-11-13T10:40:35;53.10;;;23.70;;
18647;SDS011;9453;50.294;18.644;2022-11-13T10:43:03;50.70;;;23.20;;
18647;SDS011;9453;50.294;18.644;2022-11-13T10:45:32;59.67;;;26.07;;
18647;SDS011;9453;50.294;18.644;2022-11-13T10:47:59;45.90;;;20.67;;
18647;SDS011;9453;50.294;18.644;2022-11-13T10:50:26;53.47;;;23.40;;
18647;SDS011;9453;50.294;18.644;2022-11-13T10:52:55;47.33;;;21.87;;
18647;SDS011;9453;50.294;18.644;2022-11-13T10:55:26;46.40;;;19.00;;
18647;SDS011;9453;50.294;18.644;2022-11-13T10:58:02;39.73;;;18.10;;
18647;SDS011;9453;50.294;18.644;2022-11-13T11:00:30;47.87;;;20.23;;
18647;SDS011;9453;50.294;18.644;2022-11-13T11:02:58;45.70;;;20.47;;
18647;SDS011;9453;50.294;18.644;2022-11-13T11:05:26;47.37;;;21.20;;
18647;SDS011;9453;50.294;18.644;2022-11-13T11:07:54;45.60;;;20.40;;
18647;SDS011;9453;50.294;18.644;2022-11-13T11:10:26;33.50;;;15.47;;
18647;SDS011;9453;50.294;18.644;2022-11-13T11:12:58;32.57;;;16.03;;
18647;SDS011;9453;50.294;18.644;2022-11-13T11:15:28;44.97;;;19.00;;
18647;SDS011;9453;50.294;18.644;2022-11-13T11:18:02;43.40;;;18.87;;
18647;SDS011;9453;50.294;18.644;2022-11-13T11:20:37;47.10;;;21.37;;
18647;SDS011;9453;50.294;18.644;2022-11-13T11:23:14;42.07;;;19.40;;
18647;SDS011;9453;50.294;18.644;2022-11-13T11:25:49;43.50;;;19.13;;
18647;SDS011;9453;50.294;18.644;2022-11-13T11:28:24;37.60;;;17.67;;
18647;SDS011;9453;50.294;18.644;2022-11-13T11:30:59;44.90;;;19.17;;
18647;SDS011;9453;50.294;18.644;2022-11-13T11:33:34;40.40;;;19.40;;
18647;SDS011;9453;50.294;18.644;2022-11-13T11:36:07;44.87;;;21.67;;
18647;SDS011;9453;50.294;18.644;2022-11-13T11:38:44;40.17;;;19.63;;
18647;SDS011;9453;50.294;18.644;2022-11-13T11:41:20;33.73;;;16.47;;
18647;SDS011;9453;50.294;18.644;2022-11-13T11:43:52;41.97;;;19.47;;
18647;SDS011;9453;50.294;18.644;2022-11-13T11:46:26;43.93;;;20.47;;
18647;SDS011;9453;50.294;18.644;2022-11-13T11:48:55;49.60;;;20.50;;
18647;SDS011;9453;50.294;18.644;2022-11-13T11:51:25;40.87;;;18.47;;
18647;SDS011;9453;50.294;18.644;2022-11-13T11:53:57;39.10;;;17.77;;
18647;SDS011;9453;50.294;18.644;2022-11-13T11:56:33;36.93;;;18.23;;
18647;SDS011;9453;50.294;18.644;2022-11-13T11:59:14;37.40;;;16.73;;
18647;SDS011;9453;50.294;18.644;2022-11-13T12:04:54;35.20;;;16.13;;
18647;SDS011;9453;50.294;18.644;2022-11-13T12:07:31;40.10;;;19.00;;
18647;SDS011;9453;50.294;18.644;2022-11-13T12:10:06;39.27;;;18.73;;
18647;SDS011;9453;50.294;18.644;2022-11-13T12:12:49;40.43;;;18.27;;
18647;SDS011;9453;50.294;18.644;2022-11-13T12:15:25;42.83;;;19.80;;
18647;SDS011;9453;50.294;18.644;2022-11-13T12:18:02;36.17;;;17.53;;
18647;SDS011;9453;50.294;18.644;2022-11-13T12:20:40;33.40;;;15.10;;
18647;SDS011;9453;50.294;18.644;2022-11-13T12:23:15;30.53;;;15.93;;
18647;SDS011;9453;50.294;18.644;2022-11-13T12:25:53;40.23;;;18.60;;
18647;SDS011;9453;50.294;18.644;2022-11-13T12:28:27;41.20;;;17.10;;
18647;SDS011;9453;50.294;18.644;2022-11-13T12:31:03;38.33;;;18.10;;
18647;SDS011;9453;50.294;18.644;2022-11-13T12:33:39;38.70;;;17.07;;
18647;SDS011;9453;50.294;18.644;2022-11-13T12:36:11;40.07;;;18.47;;
18647;SDS011;9453;50.294;18.644;2022-11-13T12:38:41;38.73;;;18.00;;
18647;SDS011;9453;50.294;18.644;2022-11-13T12:41:17;35.97;;;15.63;;
18647;SDS011;9453;50.294;18.644;2022-11-13T12:46:46;35.67;;;15.93;;
18647;SDS011;9453;50.294;18.644;2022-11-13T12:49:14;40.73;;;18.73;;
18647;SDS011;9453;50.294;18.644;2022-11-13T12:51:54;36.43;;;17.20;;
18647;SDS011;9453;50.294;18.644;2022-11-13T12:54:29;31.37;;;15.17;;
18647;SDS011;9453;50.294;18.644;2022-11-13T12:57:04;38.63;;;17.40;;
18647;SDS011;9453;50.294;18.644;2022-11-13T12:59:34;36.70;;;16.57;;
18647;SDS011;9453;50.294;18.644;2022-11-13T13:02:08;32.87;;;16.00;;
18647;SDS011;9453;50.294;18.644;2022-11-13T13:05:11;45.80;;;20.27;;
18647;SDS011;9453;50.294;18.644;2022-11-13T13:08:01;46.57;;;20.00;;
18647;SDS011;9453;50.294;18.644;2022-11-13T13:10:45;42.53;;;18.00;;
18647;SDS011;9453;50.294;18.644;2022-11-13T13:13:21;44.37;;;19.00;;
18647;SDS011;9453;50.294;18.644;2022-11-13T13:15:57;43.03;;;18.77;;
18647;SDS011;9453;50.294;18.644;2022-11-13T13:18:27;38.10;;;17.73;;
18647;SDS011;9453;50.294;18.644;2022-11-13T13:21:00;37.10;;;17.63;;
18647;SDS011;9453;50.294;18.644;2022-11-13T13:23:32;36.93;;;16.80;;
18647;SDS011;9453;50.294;18.644;2022-11-13T13:26:02;29.23;;;14.27;;
18647;SDS011;9453;50.294;18.644;2022-11-13T13:28:31;42.77;;;18.47;;
18647;SDS011;9453;50.294;18.644;2022-11-13T13:31:01;56.00;;;23.53;;
18647;SDS011;9453;50.294;18.644;2022-11-13T13:33:35;56.97;;;25.53;;
18647;SDS011;9453;50.294;18.644;2022-11-13T13:36:19;56.37;;;23.77;;
18647;SDS011;9453;50.294;18.644;2022-11-13T13:38:52;65.80;;;28.73;;
18647;SDS011;9453;50.294;18.644;2022-11-13T13:41:28;78.13;;;29.97;;
18647;SDS011;9453;50.294;18.644;2022-11-13T13:47:01;64.57;;;27.33;;
18647;SDS011;9453;50.294;18.644;2022-11-13T13:49:35;86.17;;;32.07;;
18647;SDS011;9453;50.294;18.644;2022-11-13T13:52:03;79.13;;;32.63;;
18647;SDS011;9453;50.294;18.644;2022-11-13T13:54:31;74.03;;;30.17;;
18647;SDS011;9453;50.294;18.644;2022-11-13T13:56:59;72.70;;;30.70;;
18647;SDS011;9453;50.294;18.644;2022-11-13T13:59:28;77.73;;;31.90;;
18647;SDS011;9453;50.294;18.644;2022-11-13T14:01:59;71.80;;;28.23;;
18647;SDS011;9453;50.294;18.644;2022-11-13T14:04:31;65.13;;;27.77;;
18647;SDS011;9453;50.294;18.644;2022-11-13T14:07:00;72.07;;;28.43;;
18647;SDS011;9453;50.294;18.644;2022-11-13T14:09:29;62.40;;;24.40;;
18647;SDS011;9453;50.294;18.644;2022-11-13T14:11:56;118.37;;;40.47;;
18647;SDS011;9453;50.294;18.644;2022-11-13T14:14:25;74.80;;;30.13;;
18647;SDS011;9453;50.294;18.644;2022-11-13T14:16:52;62.73;;;27.07;;
18647;SDS011;9453;50.294;18.644;2022-11-13T14:19:22;73.93;;;30.57;;
18647;SDS011;9453;50.294;18.644;2022-11-13T14:21:51;62.93;;;28.23;;
18647;SDS011;9453;50.294;18.644;2022-11-13T14:24:20;74.17;;;29.30;;
18647;SDS011;9453;50.294;18.644;2022-11-13T14:26:50;63.57;;;26.07;;
18647;SDS011;9453;50.294;18.644;2022-11-13T14:29:27;67.50;;;27.10;;
18647;SDS011;9453;50.294;18.644;2022-11-13T14:32:03;65.93;;;27.30;;
18647;SDS011;9453;50.294;18.644;2022-11-13T14:34:32;93.90;;;34.40;;
18647;SDS011;9453;50.294;18.644;2022-11-13T14:37:05;88.20;;;32.33;;
18647;SDS011;9453;50.294;18.644;2022-11-13T14:39:42;114.80;;;37.37;;
18647;SDS011;9453;50.294;18.644;2022-11-13T14:42:14;100.57;;;32.97;;
18647;SDS011;9453;50.294;18.644;2022-11-13T14:44:44;88.80;;;31.97;;
18647;SDS011;9453;50.294;18.644;2022-11-13T14:47:19;77.57;;;28.30;;
18647;SDS011;9453;50.294;18.644;2022-11-13T14:49:49;106.07;;;35.00;;
18647;SDS011;9453;50.294;18.644;2022-11-13T14:52:19;109.70;;;35.77;;
18647;SDS011;9453;50.294;18.644;2022-11-13T14:54:58;91.27;;;31.80;;
18647;SDS011;9453;50.294;18.644;2022-11-13T14:57:27;126.33;;;40.07;;
18647;SDS011;9453;50.294;18.644;2022-11-13T14:59:54;124.30;;;40.67;;
18647;SDS011;9453;50.294;18.644;2022-11-13T15:02:21;105.53;;;38.70;;
18647;SDS011;9453;50.294;18.644;2022-11-13T15:04:49;88.83;;;36.13;;
18647;SDS011;9453;50.294;18.644;2022-11-13T15:07:18;99.43;;;37.37;;
18647;SDS011;9453;50.294;18.644;2022-11-13T15:09:50;98.47;;;36.57;;
18647;SDS011;9453;50.294;18.644;2022-11-13T15:12:17;86.40;;;33.67;;
18647;SDS011;9453;50.294;18.644;2022-11-13T15:14:44;96.37;;;38.73;;
18647;SDS011;9453;50.294;18.644;2022-11-13T15:17:12;87.10;;;33.20;;
18647;SDS011;9453;50.294;18.644;2022-11-13T15:19:41;96.50;;;35.13;;
18647;SDS011;9453;50.294;18.644;2022-11-13T15:22:10;88.10;;;35.27;;
18647;SDS011;9453;50.294;18.644;2022-11-13T15:24:38;99.33;;;38.63;;
18647;SDS011;9453;50.294;18.644;2022-11-13T15:27:14;157.07;;;55.30;;
18647;SDS011;9453;50.294;18.644;2022-11-13T15:29:42;132.07;;;45.83;;
18647;SDS011;9453;50.294;18.644;2022-11-13T15:32:09;108.03;;;41.07;;
18647;SDS011;9453;50.294;18.644;2022-11-13T15:34:36;144.23;;;49.33;;
18647;SDS011;9453;50.294;18.644;2022-11-13T15:37:08;156.37;;;53.27;;
18647;SDS011;9453;50.294;18.644;2022-11-13T15:39:38;135.93;;;47.97;;
18647;SDS011;9453;50.294;18.644;2022-11-13T15:42:06;133.60;;;45.73;;
18647;SDS011;9453;50.294;18.644;2022-11-13T15:44:42;143.53;;;49.80;;
18647;SDS011;9453;50.294;18.644;2022-11-13T15:47:15;129.73;;;46.33;;
18647;SDS011;9453;50.294;18.644;2022-11-13T15:49:50;129.50;;;47.63;;
18647;SDS011;9453;50.294;18.644;2022-11-13T15:52:18;123.97;;;43.20;;
18647;SDS011;9453;50.294;18.644;2022-11-13T15:55:00;138.33;;;50.17;;
18647;SDS011;9453;50.294;18.644;2022-11-13T15:57:31;120.07;;;43.97;;
18647;SDS011;9453;50.294;18.644;2022-11-13T15:59:58;105.47;;;40.30;;
18647;SDS011;9453;50.294;18.644;2022-11-13T16:02:26;120.73;;;44.67;;
18647;SDS011;9453;50.294;18.644;2022-11-13T16:04:53;108.20;;;39.87;;
18647;SDS011;9453;50.294;18.644;2022-11-13T16:07:25;103.77;;;38.27;;
18647;SDS011;9453;50.294;18.644;2022-11-13T16:09:55;102.53;;;38.07;;
18647;SDS011;9453;50.294;18.644;2022-11-13T16:12:22;123.97;;;45.30;;
18647;SDS011;9453;50.294;18.644;2022-11-13T16:14:49;114.80;;;43.37;;
18647;SDS011;9453;50.294;18.644;2022-11-13T16:17:17;106.50;;;42.33;;
18647;SDS011;9453;50.294;18.644;2022-11-13T16:19:45;134.67;;;46.30;;
18647;SDS011;9453;50.294;18.644;2022-11-13T16:22:17;108.43;;;42.07;;
18647;SDS011;9453;50.294;18.644;2022-11-13T16:24:47;133.73;;;45.40;;
18647;SDS011;9453;50.294;18.644;2022-11-13T16:27:14;145.30;;;45.43;;
18647;SDS011;9453;50.294;18.644;2022-11-13T16:29:47;134.10;;;44.30;;
18647;SDS011;9453;50.294;18.644;2022-11-13T16:32:14;114.00;;;39.83;;
18647;SDS011;9453;50.294;18.644;2022-11-13T16:34:42;132.40;;;40.53;;
18647;SDS011;9453;50.294;18.644;2022-11-13T16:37:11;122.03;;;37.87;;
18647;SDS011;9453;50.294;18.644;2022-11-13T16:39:41;122.47;;;37.80;;
18647;SDS011;9453;50.294;18.644;2022-11-13T16:42:10;116.43;;;41.10;;
18647;SDS011;9453;50.294;18.644;2022-11-13T16:44:38;146.77;;;45.63;;
18647;SDS011;9453;50.294;18.644;2022-11-13T16:47:14;171.00;;;52.00;;
18647;SDS011;9453;50.294;18.644;2022-11-13T16:49:47;153.57;;;47.03;;
18647;SDS011;9453;50.294;18.644;2022-11-13T16:52:14;152.90;;;45.43;;
18647;SDS011;9453;50.294;18.644;2022-11-13T16:54:41;168.60;;;48.37;;
18647;SDS011;9453;50.294;18.644;2022-11-13T16:57:11;160.97;;;45.53;;
18647;SDS011;9453;50.294;18.644;2022-11-13T16:59:40;147.77;;;46.00;;
18647;SDS011;9453;50.294;18.644;2022-11-13T17:02:15;150.80;;;43.40;;
18647;SDS011;9453;50.294;18.644;2022-11-13T17:04:43;160.90;;;47.50;;
18647;SDS011;9453;50.294;18.644;2022-11-13T17:07:10;165.10;;;45.83;;
18647;SDS011;9453;50.294;18.644;2022-11-13T17:09:39;163.17;;;49.87;;
18647;SDS011;9453;50.294;18.644;2022-11-13T17:12:06;156.10;;;44.87;;
18647;SDS011;9453;50.294;18.644;2022-11-13T17:14:35;164.17;;;49.10;;
18647;SDS011;9453;50.294;18.644;2022-11-13T17:17:06;158.63;;;48.20;;
18647;SDS011;9453;50.294;18.644;2022-11-13T17:19:38;173.33;;;51.10;;
18647;SDS011;9453;50.294;18.644;2022-11-13T17:22:08;156.60;;;48.23;;
18647;SDS011;9453;50.294;18.644;2022-11-13T17:24:34;143.60;;;44.60;;
18647;SDS011;9453;50.294;18.644;2022-11-13T17:27:01;157.83;;;44.93;;
18647;SDS011;9453;50.294;18.644;2022-11-13T17:29:29;131.67;;;39.70;;
18647;SDS011;9453;50.294;18.644;2022-11-13T17:31:57;166.57;;;46.37;;
18647;SDS011;9453;50.294;18.644;2022-11-13T17:34:24;154.53;;;52.10;;
18647;SDS011;9453;50.294;18.644;2022-11-13T17:36:51;145.83;;;47.77;;
18647;SDS011;9453;50.294;18.644;2022-11-13T17:39:19;131.47;;;43.40;;
18647;SDS011;9453;50.294;18.644;2022-11-13T17:41:46;127.50;;;40.30;;
18647;SDS011;9453;50.294;18.644;2022-11-13T17:44:14;123.87;;;38.73;;
18647;SDS011;9453;50.294;18.644;2022-11-13T17:46:41;109.67;;;37.57;;
18647;SDS011;9453;50.294;18.644;2022-11-13T17:49:10;127.40;;;41.10;;
18647;SDS011;9453;50.294;18.644;2022-11-13T17:51:36;131.10;;;40.97;;
18647;SDS011;9453;50.294;18.644;2022-11-13T17:54:04;127.40;;;40.73;;
18647;SDS011;9453;50.294;18.644;2022-11-13T17:56:31;129.00;;;38.80;;
18647;SDS011;9453;50.294;18.644;2022-11-13T17:58:59;123.97;;;39.57;;
18647;SDS011;9453;50.294;18.644;2022-11-13T18:01:26;128.27;;;40.97;;
18647;SDS011;9453;50.294;18.644;2022-11-13T18:03:55;108.47;;;35.87;;
18647;SDS011;9453;50.294;18.644;2022-11-13T18:06:24;105.30;;;34.80;;
18647;SDS011;9453;50.294;18.644;2022-11-13T18:08:51;96.10;;;32.17;;
18647;SDS011;9453;50.294;18.644;2022-11-13T18:11:19;100.60;;;34.13;;
18647;SDS011;9453;50.294;18.644;2022-11-13T18:13:47;94.67;;;32.10;;
18647;SDS011;9453;50.294;18.644;2022-11-13T18:16:15;105.37;;;35.77;;
18647;SDS011;9453;50.294;18.644;2022-11-13T18:18:46;113.00;;;37.27;;
18647;SDS011;9453;50.294;18.644;2022-11-13T18:21:18;102.03;;;32.23;;
18647;SDS011;9453;50.294;18.644;2022-11-13T18:23:47;100.43;;;32.57;;
18647;SDS011;9453;50.294;18.644;2022-11-13T18:26:15;90.43;;;31.17;;
18647;SDS011;9453;50.294;18.644;2022-11-13T18:28:44;77.57;;;28.53;;
18647;SDS011;9453;50.294;18.644;2022-11-13T18:31:11;84.27;;;28.67;;
18647;SDS011;9453;50.294;18.644;2022-11-13T18:33:39;75.60;;;27.50;;
18647;SDS011;9453;50.294;18.644;2022-11-13T18:36:07;93.00;;;33.50;;
18647;SDS011;9453;50.294;18.644;2022-11-13T18:38:34;79.77;;;28.03;;
18647;SDS011;9453;50.294;18.644;2022-11-13T18:41:03;75.03;;;26.57;;
18647;SDS011;9453;50.294;18.644;2022-11-13T18:43:33;88.13;;;29.07;;
18647;SDS011;9453;50.294;18.644;2022-11-13T18:46:02;81.57;;;28.90;;
18647;SDS011;9453;50.294;18.644;2022-11-13T18:48:31;86.60;;;31.40;;
18647;SDS011;9453;50.294;18.644;2022-11-13T18:51:02;86.73;;;31.93;;
18647;SDS011;9453;50.294;18.644;2022-11-13T18:53:30;113.87;;;36.10;;
18647;SDS011;9453;50.294;18.644;2022-11-13T18:56:00;99.73;;;33.37;;
18647;SDS011;9453;50.294;18.644;2022-11-13T18:58:30;96.23;;;32.17;;
18647;SDS011;9453;50.294;18.644;2022-11-13T19:01:06;98.63;;;34.17;;
18647;SDS011;9453;50.294;18.644;2022-11-13T19:03:34;104.47;;;35.90;;
18647;SDS011;9453;50.294;18.644;2022-11-13T19:06:01;163.27;;;45.83;;
18647;SDS011;9453;50.294;18.644;2022-11-13T19:08:31;135.90;;;43.23;;
18647;SDS011;9453;50.294;18.644;2022-11-13T19:11:05;117.47;;;38.67;;
18647;SDS011;9453;50.294;18.644;2022-11-13T19:13:35;103.80;;;33.40;;
18647;SDS011;9453;50.294;18.644;2022-11-13T19:16:05;121.33;;;38.30;;
18647;SDS011;9453;50.294;18.644;2022-11-13T19:18:34;143.13;;;43.77;;
18647;SDS011;9453;50.294;18.644;2022-11-13T19:21:04;111.60;;;38.90;;
18647;SDS011;9453;50.294;18.644;2022-11-13T19:23:32;100.27;;;32.80;;
18647;SDS011;9453;50.294;18.644;2022-11-13T19:26:00;91.00;;;32.20;;
18647;SDS011;9453;50.294;18.644;2022-11-13T19:28:28;109.23;;;34.00;;
18647;SDS011;9453;50.294;18.644;2022-11-13T19:30:55;125.00;;;38.00;;
18647;SDS011;9453;50.294;18.644;2022-11-13T19:33:23;138.07;;;39.20;;
18647;SDS011;9453;50.294;18.644;2022-11-13T19:35:52;129.17;;;40.20;;
18647;SDS011;9453;50.294;18.644;2022-11-13T19:38:20;123.40;;;39.93;;
18647;SDS011;9453;50.294;18.644;2022-11-13T19:40:48;132.07;;;38.83;;
18647;SDS011;9453;50.294;18.644;2022-11-13T19:43:16;135.63;;;40.23;;
18647;SDS011;9453;50.294;18.644;2022-11-13T19:45:44;124.77;;;38.00;;
18647;SDS011;9453;50.294;18.644;2022-11-13T19:48:11;113.07;;;35.43;;